Time;durP1;ratioP1;P1;durP2;ratioP2;P2;SDS_P1;SDS_P2;PMS_P1;PMS_P2;Temp;Humidity;BMP_temperature;BMP_pressure;BME280_temperature;BME280_humidity;BME280_pressure;Samples;Min_cycle;Max_cycle;Signal;HPM_P1;HPM_P2
2023/04/16 00:01:55;;;;;;;11.63;3.30;;;;;;;10.76;66.73;102068.47;5071553;28;20426;-65
2023/04/16 00:04:21;;;;;;;6.97;3.00;;;;;;;10.79;66.40;102079.13;5070493;28;20066;-64
2023/04/16 00:06:46;;;;;;;9.88;3.03;;;;;;;10.79;66.50;102078.28;5070971;28;21057;-65
2023/04/16 00:09:11;;;;;;;8.60;2.75;;;;;;;10.77;66.58;102070.19;5074656;28;20036;-65
2023/04/16 00:11:36;;;;;;;6.00;2.75;;;;;;;10.76;66.45;102073.16;5076251;28;20077;-65
2023/04/16 00:14:02;;;;;;;8.63;2.97;;;;;;;10.72;66.75;102080.25;5068444;28;20594;-65
2023/04/16 00:16:27;;;;;;;8.23;3.03;;;;;;;10.72;66.69;102074.69;5053822;28;20082;-65
2023/04/16 00:18:52;;;;;;;10.73;3.30;;;;;;;10.74;66.78;102078.94;5046980;28;20024;-65
2023/04/16 00:21:18;;;;;;;7.35;3.03;;;;;;;10.74;66.47;102078.09;5048908;28;20586;-64
2023/04/16 00:23:43;;;;;;;10.60;2.85;;;;;;;10.74;66.60;102078.09;5050006;28;20094;-65
2023/04/16 00:26:09;;;;;;;9.20;3.00;;;;;;;10.74;67.07;102072.56;5053556;28;20453;-65
2023/04/16 00:28:34;;;;;;;9.88;3.50;;;;;;;10.73;66.70;102073.63;5053054;28;20130;-64
2023/04/16 00:31:00;;;;;;;9.25;2.85;;;;;;;10.65;67.00;102077.53;5049622;28;20368;-65
2023/04/16 00:33:25;;;;;;;7.68;2.88;;;;;;;10.71;66.70;102073.84;5049265;28;20219;-66
2023/04/16 00:35:51;;;;;;;7.70;3.05;;;;;;;10.72;66.76;102074.69;5048449;28;20545;-66
2023/04/16 00:38:16;;;;;;;10.23;3.45;;;;;;;10.70;67.03;102080.47;5054036;28;20759;-65
2023/04/16 00:40:41;;;;;;;8.90;3.15;;;;;;;10.72;67.15;102071.91;5052236;28;20032;-65
2023/04/16 00:43:07;;;;;;;6.88;3.20;;;;;;;10.72;67.06;102075.53;5055440;28;20483;-65
2023/04/16 00:45:32;;;;;;;7.80;3.08;;;;;;;10.70;67.21;102068.53;5050026;28;20476;-65
2023/04/16 00:47:59;;;;;;;6.38;3.42;;;;;;;10.60;67.57;102073.69;5055076;28;20070;-65
2023/04/16 00:50:25;;;;;;;8.75;3.15;;;;;;;10.68;67.29;102077.06;5053000;28;20487;-65
2023/04/16 00:52:50;;;;;;;8.10;3.53;;;;;;;10.70;67.30;102065.75;5050292;28;20017;-65
2023/04/16 00:55:17;;;;;;;7.43;3.67;;;;;;;10.60;67.53;102069.00;5053423;28;20550;-65
2023/04/16 00:57:42;;;;;;;7.68;3.67;;;;;;;10.66;67.62;102070.03;5053284;28;20452;-65
2023/04/16 01:00:08;;;;;;;7.80;3.60;;;;;;;10.63;67.73;102073.25;5050271;28;20160;-65
2023/04/16 01:02:34;;;;;;;11.02;3.92;;;;;;;10.63;67.82;102070.50;5050748;28;20023;-66
2023/04/16 01:05:00;;;;;;;11.60;3.53;;;;;;;10.59;68.02;102069.22;5047899;28;20037;-65
2023/04/16 01:07:25;;;;;;;12.00;4.05;;;;;;;10.65;67.80;102066.41;5048947;28;20542;-65
2023/04/16 01:09:51;;;;;;;8.15;3.80;;;;;;;10.69;67.51;102069.56;5046823;28;20025;-65
2023/04/16 01:12:16;;;;;;;13.77;4.10;;;;;;;10.69;67.52;102070.47;5046754;28;20028;-65
2023/04/16 01:14:41;;;;;;;12.35;4.00;;;;;;;10.69;67.69;102067.69;5063433;28;20047;-66
2023/04/16 01:17:07;;;;;;;12.45;4.13;;;;;;;10.67;67.80;102077.28;5070249;28;20028;-65
2023/04/16 01:19:35;;;;;;;8.07;4.05;;;;;;;10.70;67.88;102069.38;5070621;28;20678;-65
2023/04/16 01:22:00;;;;;;;11.73;4.57;;;;;;;10.70;67.82;102060.19;5070146;28;20112;-65
2023/04/16 01:24:26;;;;;;;11.98;3.85;;;;;;;10.69;67.89;102064.91;5068306;28;20055;-65
2023/04/16 01:26:51;;;;;;;12.35;4.15;;;;;;;10.66;67.93;102068.13;5070968;28;20123;-65
2023/04/16 01:29:16;;;;;;;11.60;4.45;;;;;;;10.65;68.22;102060.00;5070676;28;20108;-66
2023/04/16 01:31:42;;;;;;;7.07;3.85;;;;;;;10.72;68.09;102066.34;5073503;28;20036;-65
2023/04/16 01:34:07;;;;;;;9.65;4.78;;;;;;;10.68;68.00;102067.88;5067795;28;20051;-65
2023/04/16 01:36:32;;;;;;;11.23;4.40;;;;;;;10.63;68.53;102068.56;5069885;28;20062;-64
2023/04/16 01:38:57;;;;;;;9.57;4.65;;;;;;;10.62;68.43;102071.56;5067915;28;20055;-64
2023/04/16 01:41:23;;;;;;;7.18;5.10;;;;;;;10.68;68.38;102079.00;5075483;28;20036;-65
2023/04/16 01:43:48;;;;;;;9.50;4.28;;;;;;;10.68;68.29;102079.84;5069157;28;20056;-64
2023/04/16 01:46:19;;;;;;;6.68;4.30;;;;;;;10.71;68.08;102076.63;5069159;28;20119;-65
2023/04/16 01:48:44;;;;;;;8.27;4.90;;;;;;;10.71;68.34;102075.78;5071673;28;20108;-65
2023/04/16 01:51:09;;;;;;;9.13;4.60;;;;;;;10.68;68.25;102074.28;5066705;28;20147;-65
2023/04/16 01:53:38;;;;;;;7.50;4.43;;;;;;;10.71;68.49;102078.53;5068856;28;20024;-64
2023/04/16 01:56:05;;;;;;;9.63;4.65;;;;;;;10.67;68.62;102080.06;5067389;28;20043;-65
2023/04/16 01:58:32;;;;;;;10.02;5.43;;;;;;;10.69;68.72;102078.78;5073623;28;20363;-65
2023/04/16 02:00:58;;;;;;;8.20;4.88;;;;;;;10.68;68.55;102087.31;5068068;28;20025;-65
2023/04/16 02:03:23;;;;;;;10.65;4.95;;;;;;;10.64;68.90;102074.97;5072287;28;20035;-65
2023/04/16 02:05:50;;;;;;;10.48;4.70;;;;;;;10.67;68.92;102080.91;5066713;28;20161;-65
2023/04/16 02:08:16;;;;;;;10.15;5.28;;;;;;;10.68;68.89;102076.22;5071352;28;20075;-65
2023/04/16 02:10:41;;;;;;;9.85;5.15;;;;;;;10.64;69.14;102074.97;5074040;28;20024;-64
2023/04/16 02:13:06;;;;;;;8.52;5.22;;;;;;;10.67;69.11;102075.38;5068231;28;20028;-65
2023/04/16 02:15:31;;;;;;;7.95;4.95;;;;;;;10.65;69.12;102071.09;5074451;28;20024;-65
2023/04/16 02:17:57;;;;;;;7.18;5.13;;;;;;;10.66;69.34;102070.03;5066330;28;20016;-65
2023/04/16 02:20:22;;;;;;;7.85;5.13;;;;;;;10.67;69.19;102074.53;5073442;28;20039;-65
2023/04/16 02:22:47;;;;;;;8.82;5.10;;;;;;;10.65;69.20;102071.97;5070132;28;20093;-65
2023/04/16 02:25:13;;;;;;;10.35;5.28;;;;;;;10.67;69.11;102074.53;5070032;28;20033;-65
2023/04/16 02:27:38;;;;;;;9.73;5.70;;;;;;;10.67;69.15;102066.19;5070486;28;20036;-65
2023/04/16 02:30:04;;;;;;;8.07;5.30;;;;;;;10.62;69.52;102066.03;5071180;28;20487;-65
2023/04/16 02:32:30;;;;;;;12.95;4.80;;;;;;;10.58;69.68;102068.38;5069851;28;20025;-65
2023/04/16 02:34:56;;;;;;;7.70;5.05;;;;;;;10.65;69.55;102066.41;5066489;28;20360;-65
2023/04/16 02:37:21;;;;;;;9.40;5.10;;;;;;;10.65;69.81;102065.53;5074123;28;20036;-65
2023/04/16 02:39:48;;;;;;;10.20;5.18;;;;;;;10.63;69.42;102067.72;5068464;28;20052;-65
2023/04/16 02:42:14;;;;;;;11.48;5.13;;;;;;;10.64;69.86;102072.19;5066812;28;20171;-65
2023/04/16 02:44:39;;;;;;;10.05;4.65;;;;;;;10.62;69.80;102068.78;5079655;28;20107;-65
2023/04/16 02:47:05;;;;;;;8.40;4.82;;;;;;;10.65;69.74;102076.66;5081502;28;20517;-65
2023/04/16 02:49:30;;;;;;;10.75;4.85;;;;;;;10.63;69.94;102079.66;5075511;28;20021;-66
2023/04/16 02:51:55;;;;;;;9.20;4.72;;;;;;;10.65;69.78;102087.75;5074368;28;20074;-65
2023/04/16 02:54:21;;;;;;;9.63;5.03;;;;;;;10.64;69.59;102077.72;5071540;28;20025;-66
2023/04/16 02:56:46;;;;;;;9.95;5.07;;;;;;;10.59;70.00;102081.19;5071647;28;20020;-65
2023/04/16 02:59:11;;;;;;;8.50;4.30;;;;;;;10.56;69.92;102084.41;5075365;28;20056;-65
2023/04/16 03:01:36;;;;;;;10.55;5.13;;;;;;;10.62;70.17;102088.22;5084045;28;20044;-65
2023/04/16 03:04:02;;;;;;;10.23;4.70;;;;;;;10.66;69.85;102083.94;5072443;28;20028;-64
2023/04/16 03:06:27;;;;;;;8.95;4.85;;;;;;;10.66;69.83;102095.03;5084776;28;20494;-65
2023/04/16 03:08:52;;;;;;;9.18;5.00;;;;;;;10.64;70.15;102088.84;5074721;28;20055;-65
2023/04/16 03:11:19;;;;;;;9.05;5.05;;;;;;;10.65;69.97;102093.31;5074444;28;20472;-64
2023/04/16 03:13:44;;;;;;;6.85;4.97;;;;;;;10.65;70.10;102087.75;5077684;28;20368;-64
2023/04/16 03:16:10;;;;;;;9.88;5.13;;;;;;;10.62;69.95;102083.53;5073494;28;20032;-64
2023/04/16 03:18:35;;;;;;;9.90;5.78;;;;;;;10.66;70.03;102095.88;5078607;28;20020;-65
2023/04/16 03:21:01;;;;;;;8.98;5.28;;;;;;;10.62;70.19;102102.13;5076200;28;20043;-65
2023/04/16 03:23:27;;;;;;;10.35;5.65;;;;;;;10.61;70.20;102097.59;5076554;28;20432;-64
2023/04/16 03:25:52;;;;;;;8.82;5.40;;;;;;;10.61;70.29;102097.59;5072482;28;20498;-65
2023/04/16 03:28:17;;;;;;;11.00;6.13;;;;;;;10.63;70.26;102099.09;5073938;28;20032;-64
2023/04/16 03:30:48;;;;;;;9.18;5.90;;;;;;;10.62;70.23;102099.34;5074098;28;20020;-65
2023/04/16 03:33:14;;;;;;;10.95;6.10;;;;;;;10.59;70.38;102094.22;5070802;28;20033;-65
2023/04/16 03:35:39;;;;;;;13.70;7.20;;;;;;;10.57;70.61;102103.63;5078404;28;20510;-65
2023/04/16 03:38:05;;;;;;;9.98;6.68;;;;;;;10.56;70.62;102106.63;5083206;28;20471;-65
2023/04/16 03:40:30;;;;;;;12.23;7.30;;;;;;;10.57;70.55;102109.19;5073079;28;20074;-65
2023/04/16 03:42:56;;;;;;;12.38;6.93;;;;;;;10.59;70.42;102108.94;5077736;28;20384;-65
2023/04/16 03:45:21;;;;;;;13.38;7.88;;;;;;;10.57;70.39;102108.31;5071286;28;20148;-65
2023/04/16 03:47:51;;;;;;;13.60;7.40;;;;;;;10.55;70.52;102105.75;5078731;28;20029;-65
2023/04/16 03:50:17;;;;;;;11.90;8.00;;;;;;;10.56;70.23;102107.47;5070317;28;20032;-65
2023/04/16 03:52:43;;;;;;;10.13;7.78;;;;;;;10.53;70.42;102099.59;5076233;28;20024;-65
2023/04/16 03:55:08;;;;;;;13.68;7.75;;;;;;;10.58;70.45;102110.03;5074200;28;20551;-64
2023/04/16 03:57:33;;;;;;;14.40;9.25;;;;;;;10.56;70.66;102095.50;5075800;28;20134;-65
2023/04/16 03:59:59;;;;;;;13.15;8.98;;;;;;;10.55;70.57;102104.91;5076590;28;20470;-65
2023/04/16 04:02:24;;;;;;;13.10;8.70;;;;;;;10.54;70.67;102101.28;5074263;28;20035;-64
2023/04/16 04:04:49;;;;;;;16.92;9.98;;;;;;;10.47;70.83;102108.81;5077962;28;20031;-65
2023/04/16 04:07:15;;;;;;;13.77;10.35;;;;;;;10.44;71.02;102105.63;5071757;28;20481;-65
2023/04/16 04:09:40;;;;;;;13.75;9.60;;;;;;;10.45;70.97;102101.75;5074145;28;20086;-65
2023/04/16 04:12:06;;;;;;;13.98;9.82;;;;;;;10.47;71.13;102103.25;5072449;28;20035;-65
2023/04/16 04:14:31;;;;;;;16.17;10.32;;;;;;;10.50;70.69;102102.81;5073921;28;20071;-65
2023/04/16 04:16:56;;;;;;;15.98;10.38;;;;;;;10.48;70.89;102102.16;5078798;28;20023;-65
2023/04/16 04:19:21;;;;;;;13.18;9.68;;;;;;;10.47;70.91;102103.25;5080685;28;20382;-67
2023/04/16 04:21:47;;;;;;;15.85;10.52;;;;;;;10.47;70.99;102111.59;5080402;28;20032;-65
2023/04/16 04:24:12;;;;;;;13.80;9.75;;;;;;;10.44;71.31;102100.91;5074980;28;20031;-65
2023/04/16 04:26:37;;;;;;;11.30;9.55;;;;;;;10.46;70.79;102101.56;5076445;28;20507;-65
2023/04/16 04:29:02;;;;;;;14.15;9.10;;;;;;;10.45;71.03;102101.75;5078023;28;20024;-65
2023/04/16 04:31:28;;;;;;;14.57;9.45;;;;;;;10.37;71.53;102108.41;5076231;28;20035;-65
2023/04/16 04:33:53;;;;;;;12.85;8.85;;;;;;;10.34;71.38;102114.44;5075357;28;20037;-65
2023/04/16 04:36:19;;;;;;;15.57;9.35;;;;;;;10.35;71.58;102106.97;5073635;28;20054;-65
2023/04/16 04:38:44;;;;;;;13.57;8.95;;;;;;;10.36;71.51;102112.28;5077443;28;20036;-65
2023/04/16 04:41:09;;;;;;;14.50;9.13;;;;;;;10.38;71.24;102118.47;5073318;28;20040;-65
2023/04/16 04:43:35;;;;;;;13.10;9.20;;;;;;;10.38;71.59;102117.63;5077203;28;20118;-65
2023/04/16 04:46:00;;;;;;;13.95;9.27;;;;;;;10.38;71.64;102117.63;5075415;28;20108;-65
2023/04/16 04:48:26;;;;;;;16.13;9.23;;;;;;;10.37;71.71;102130.63;5075256;28;20027;-65
2023/04/16 04:50:52;;;;;;;14.40;9.27;;;;;;;10.30;71.79;102116.78;5078870;28;20382;-65
2023/04/16 04:53:18;;;;;;;14.65;9.77;;;;;;;10.34;71.83;102119.13;5071647;28;20024;-65
2023/04/16 04:55:43;;;;;;;18.00;10.50;;;;;;;10.30;71.99;102125.13;5071118;28;20031;-65
2023/04/16 04:58:08;;;;;;;15.73;10.27;;;;;;;10.34;71.61;102125.53;5079010;28;20035;-65
2023/04/16 05:00:35;;;;;;;13.38;10.05;;;;;;;10.37;71.96;102127.00;5072155;28;20025;-65
2023/04/16 05:03:05;;;;;;;15.88;10.05;;;;;;;10.37;71.72;102127.00;5073195;28;20033;-65
2023/04/16 05:05:30;;;;;;;15.05;9.90;;;;;;;10.31;71.86;102126.81;5073440;28;20041;-65
2023/04/16 05:07:56;;;;;;;19.13;9.77;;;;;;;10.39;71.79;102124.88;5071825;28;20021;-65
2023/04/16 05:10:21;;;;;;;15.65;10.30;;;;;;;10.38;71.70;102125.94;5072668;28;20017;-65
2023/04/16 05:12:49;;;;;;;19.13;10.48;;;;;;;10.30;72.02;102124.28;5077619;28;20048;-64
2023/04/16 05:15:15;;;;;;;16.05;10.05;;;;;;;10.28;72.00;102131.94;5085819;28;20043;-64
2023/04/16 05:17:41;;;;;;;15.98;10.07;;;;;;;10.31;72.10;102134.28;5077151;28;20032;-64
2023/04/16 05:20:08;;;;;;;16.17;9.80;;;;;;;10.35;72.23;102132.78;5071296;28;20020;-64
2023/04/16 05:22:33;;;;;;;20.00;9.82;;;;;;;10.33;72.01;102132.13;5070666;28;20253;-65
2023/04/16 05:24:58;;;;;;;15.18;9.07;;;;;;;10.35;71.88;102127.22;5071796;28;20118;-65
2023/04/16 05:27:23;;;;;;;17.73;10.13;;;;;;;10.31;71.99;102132.38;5074217;28;20024;-66
2023/04/16 05:29:49;;;;;;;18.20;9.43;;;;;;;10.30;72.42;102136.22;5073775;28;20399;-66
2023/04/16 05:32:14;;;;;;;17.40;9.23;;;;;;;10.33;72.00;102140.47;5072170;28;20132;-66
2023/04/16 05:34:39;;;;;;;15.90;9.45;;;;;;;10.35;72.20;102141.09;5072747;28;20039;-65
2023/04/16 05:37:05;;;;;;;18.70;10.82;;;;;;;10.31;72.29;102153.72;5074127;28;20028;-65
2023/04/16 05:39:30;;;;;;;14.02;9.40;;;;;;;10.34;72.21;102144.97;5069025;28;20395;-65
2023/04/16 05:41:55;;;;;;;16.90;9.07;;;;;;;10.37;72.30;102150.03;5075974;28;20051;-65
2023/04/16 05:44:20;;;;;;;14.57;9.82;;;;;;;10.36;72.19;102156.69;5072201;28;20028;-65
2023/04/16 05:46:46;;;;;;;13.70;9.25;;;;;;;10.32;72.55;102152.63;5069895;28;20487;-65
2023/04/16 05:49:11;;;;;;;16.02;8.57;;;;;;;10.33;72.43;102157.13;5072874;28;20084;-66
2023/04/16 05:51:36;;;;;;;15.15;9.95;;;;;;;10.34;72.50;102153.28;5070174;28;20036;-65
2023/04/16 05:54:02;;;;;;;14.95;9.50;;;;;;;10.34;72.85;102164.38;5067225;28;20111;-65
2023/04/16 05:56:27;;;;;;;14.80;8.88;;;;;;;10.33;73.21;102171.00;5078880;28;20032;-65
2023/04/16 05:58:52;;;;;;;16.10;9.05;;;;;;;10.32;72.80;102164.59;5072304;28;20035;-66
2023/04/16 06:01:17;;;;;;;18.42;10.57;;;;;;;10.35;72.79;102171.63;5087135;28;20093;-65
2023/04/16 06:03:44;;;;;;;17.35;9.85;;;;;;;10.35;72.83;102176.34;5082134;28;20039;-65
2023/04/16 06:06:09;;;;;;;16.75;9.52;;;;;;;10.37;72.73;102172.25;5073940;28;20041;-66
2023/04/16 06:08:34;;;;;;;19.10;10.43;;;;;;;10.34;73.03;102169.94;5076803;28;20486;-65
2023/04/16 06:11:00;;;;;;;17.42;10.15;;;;;;;10.34;73.26;102171.88;5068852;28;20036;-65
2023/04/16 06:13:25;;;;;;;19.83;10.57;;;;;;;10.34;73.19;102175.50;5072124;28;20161;-65
2023/04/16 06:15:50;;;;;;;20.27;10.80;;;;;;;10.36;73.08;102173.34;5069245;28;20025;-66
2023/04/16 06:18:15;;;;;;;18.83;10.45;;;;;;;10.38;72.99;102171.22;5072733;28;20101;-65
2023/04/16 06:20:41;;;;;;;19.67;10.95;;;;;;;10.41;72.55;102175.44;5071358;28;20039;-65
2023/04/16 06:23:06;;;;;;;17.25;10.15;;;;;;;10.41;72.87;102169.88;5077819;28;20384;-65
2023/04/16 06:25:31;;;;;;;17.30;10.30;;;;;;;10.37;73.14;102175.03;5069820;28;20377;-66
2023/04/16 06:27:57;;;;;;;14.93;10.80;;;;;;;10.39;72.95;102172.06;5072282;28;20035;-66
2023/04/16 06:30:22;;;;;;;17.58;10.57;;;;;;;10.38;72.81;102176.75;5076432;28;20106;-66
2023/04/16 06:32:48;;;;;;;17.25;10.23;;;;;;;10.41;73.10;102187.38;5086565;28;20059;-66
2023/04/16 06:35:13;;;;;;;17.35;10.02;;;;;;;10.40;73.21;102179.31;5073233;28;20526;-61
2023/04/16 06:37:38;;;;;;;19.55;10.55;;;;;;;10.43;72.98;102187.19;5071234;28;21010;-62
2023/04/16 06:40:04;;;;;;;18.35;10.50;;;;;;;10.41;73.38;102181.84;5080180;28;20028;-65
2023/04/16 06:42:29;;;;;;;20.80;11.15;;;;;;;10.41;73.19;102192.09;5067265;28;20128;-66
2023/04/16 06:44:55;;;;;;;21.30;10.93;;;;;;;10.42;73.23;102193.81;5069235;28;20035;-66
2023/04/16 06:47:20;;;;;;;18.33;10.95;;;;;;;10.41;73.06;102192.94;5077624;28;20016;-66
2023/04/16 06:49:45;;;;;;;20.25;10.82;;;;;;;10.40;73.28;102194.03;5084914;28;20032;-63
2023/04/16 06:52:11;;;;;;;21.33;11.23;;;;;;;10.38;73.08;102193.41;5081388;28;20540;-63
2023/04/16 06:54:37;;;;;;;18.05;11.30;;;;;;;10.38;73.57;102203.66;5091493;28;20020;-66
2023/04/16 06:57:02;;;;;;;20.45;11.10;;;;;;;10.42;73.00;102207.69;5078309;28;20467;-62
2023/04/16 06:59:27;;;;;;;22.27;10.68;;;;;;;10.42;73.08;102210.47;5079268;28;20111;-67
2023/04/16 07:01:52;;;;;;;18.50;11.27;;;;;;;10.43;73.07;102213.03;5077706;28;20114;-67
2023/04/16 07:04:21;;;;;;;17.33;10.85;;;;;;;10.43;73.35;102204.69;5078823;28;20036;-68
2023/04/16 07:06:47;;;;;;;16.50;10.32;;;;;;;10.42;73.24;102213.25;5072699;28;20031;-68
2023/04/16 07:09:12;;;;;;;20.55;11.63;;;;;;;10.38;73.57;102218.38;5088917;28;20391;-67
2023/04/16 07:11:37;;;;;;;19.60;11.20;;;;;;;10.42;73.20;102218.81;5079041;28;20025;-66
2023/04/16 07:14:03;;;;;;;20.48;11.65;;;;;;;10.34;73.51;102219.91;5066480;28;20044;-71
2023/04/16 07:16:28;;;;;;;18.67;11.52;;;;;;;10.31;73.94;102226.72;5071036;28;20089;-66
2023/04/16 07:18:53;;;;;;;21.05;11.82;;;;;;;10.32;74.04;102228.41;5055723;28;20138;-67
2023/04/16 07:21:19;;;;;;;22.45;12.43;;;;;;;10.32;73.67;102228.41;5056843;28;20483;-70
2023/04/16 07:23:45;;;;;;;22.90;11.82;;;;;;;10.36;73.82;102233.53;5061158;28;20043;-68
2023/04/16 07:26:10;;;;;;;21.90;12.50;;;;;;;10.37;73.54;102233.31;5062980;28;20024;-66
2023/04/16 07:28:36;;;;;;;23.67;13.30;;;;;;;10.38;73.64;102232.25;5058034;28;20021;-66
2023/04/16 07:31:01;;;;;;;25.83;13.73;;;;;;;10.34;74.31;102236.56;5067115;28;20075;-65
2023/04/16 07:33:27;;;;;;;22.83;14.32;;;;;;;10.36;74.23;102239.09;5058661;28;20029;-67
2023/04/16 07:35:52;;;;;;;23.42;13.95;;;;;;;10.37;74.06;102236.09;5054315;28;20539;-65
2023/04/16 07:38:17;;;;;;;25.45;14.02;;;;;;;10.34;74.45;102242.09;5055631;28;20033;-66
2023/04/16 07:40:42;;;;;;;25.33;14.07;;;;;;;10.36;74.30;102248.28;5056570;28;20064;-66
2023/04/16 07:43:08;;;;;;;25.30;14.05;;;;;;;10.39;74.42;102249.75;5059113;28;20053;-66
2023/04/16 07:45:46;;;;;;;23.58;13.77;;;;;;;10.42;74.35;102250.19;5057323;28;20036;-66
2023/04/16 07:48:11;;;;;;;26.90;14.18;;;;;;;10.42;74.22;102254.88;5054718;28;20388;-66
2023/04/16 07:50:37;;;;;;;25.27;14.35;;;;;;;10.44;74.21;102242.47;5052659;28;20035;-67
2023/04/16 07:53:02;;;;;;;24.05;14.35;;;;;;;10.45;74.15;102260.88;5053288;28;20029;-67
2023/04/16 07:55:27;;;;;;;22.80;14.90;;;;;;;10.43;74.47;102263.00;5048915;28;20051;-67
2023/04/16 07:57:53;;;;;;;26.95;14.88;;;;;;;10.47;74.34;102263.41;5060764;28;20012;-67
2023/04/16 08:00:18;;;;;;;24.88;14.10;;;;;;;10.49;74.25;102264.91;5053381;28;20029;-67
2023/04/16 08:02:43;;;;;;;26.13;15.10;;;;;;;10.50;74.38;102268.53;5049131;28;20032;-67
2023/04/16 08:05:09;;;;;;;29.02;15.82;;;;;;;10.47;74.42;102266.19;5053887;28;20036;-68
2023/04/16 08:07:35;;;;;;;26.85;14.30;;;;;;;10.49;74.44;102266.81;5049576;28;20029;-67
2023/04/16 08:10:00;;;;;;;27.80;14.70;;;;;;;10.48;74.69;102270.66;5058197;28;20036;-69
2023/04/16 08:12:25;;;;;;;29.98;16.08;;;;;;;10.48;74.55;102271.50;5067334;28;20550;-66
2023/04/16 08:14:51;;;;;;;27.52;14.88;;;;;;;10.51;74.34;102275.78;5050407;28;1038267;-66
2023/04/16 08:17:16;;;;;;;31.08;16.15;;;;;;;10.49;74.53;102277.91;5085381;28;20067;-66
2023/04/16 08:19:43;;;;;;;28.45;15.40;;;;;;;10.49;74.68;102287.13;5087088;28;20028;-66
2023/04/16 08:22:10;;;;;;;27.85;14.93;;;;;;;10.51;74.24;102293.28;5090995;28;20024;-65
2023/04/16 08:24:35;;;;;;;25.20;15.40;;;;;;;10.54;74.38;102289.22;5078386;28;20795;-65
2023/04/16 08:27:01;;;;;;;34.85;15.88;;;;;;;10.50;74.74;102291.59;5078759;28;20044;-70
2023/04/16 08:29:26;;;;;;;30.85;15.35;;;;;;;10.51;74.47;102293.28;5075701;28;20036;-67
2023/04/16 08:31:52;;;;;;;25.52;14.88;;;;;;;10.53;74.39;102285.59;5069783;28;20111;-65
2023/04/16 08:34:18;;;;;;;29.05;16.70;;;;;;;10.49;74.82;102292.66;5086406;28;20024;-66
2023/04/16 08:36:44;;;;;;;31.30;16.55;;;;;;;10.50;74.78;102290.75;5088779;28;20089;-65
2023/04/16 08:39:10;;;;;;;29.70;16.73;;;;;;;10.52;74.64;102286.66;5076277;28;20020;-63
2023/04/16 08:41:37;;;;;;;29.15;16.15;;;;;;;10.52;74.88;102294.97;5087025;28;20030;-62
2023/04/16 08:44:32;;;;;;;31.35;16.23;;;;;;;10.53;74.77;102299.50;5080134;28;20708;-63
2023/04/16 08:46:57;;;;;;;27.73;15.80;;;;;;;10.55;74.62;102300.09;5069715;28;20502;-63
2023/04/16 08:49:26;;;;;;;28.13;16.30;;;;;;;10.52;74.68;102306.09;5075866;28;20024;-63
2023/04/16 08:51:55;;;;;;;30.85;16.48;;;;;;;10.50;75.06;102297.13;5077829;28;20052;-62
2023/04/16 08:54:45;;;;;;;32.67;16.55;;;;;;;10.59;74.33;102299.69;5075903;28;20024;-63
2023/04/16 08:57:13;;;;;;;29.85;16.42;;;;;;;10.55;74.64;102311.22;5073491;28;20364;-62
2023/04/16 08:59:39;;;;;;;30.75;15.88;;;;;;;10.57;74.69;102302.66;5083932;28;20059;-64
2023/04/16 09:02:04;;;;;;;35.08;17.35;;;;;;;10.57;74.56;102320.19;5086411;28;20132;-63
2023/04/16 09:04:31;;;;;;;30.02;16.67;;;;;;;10.57;74.59;102306.31;5084493;28;20039;-62
2023/04/16 09:06:57;;;;;;;30.58;17.02;;;;;;;10.58;74.57;102309.94;5089366;28;20024;-64
2023/04/16 09:09:25;;;;;;;30.67;16.30;;;;;;;10.60;74.61;102313.34;5087907;28;20077;-64
2023/04/16 09:11:51;;;;;;;30.15;16.70;;;;;;;10.61;74.56;102315.06;5068948;28;20165;-63
2023/04/16 09:14:18;;;;;;;34.15;16.88;;;;;;;10.60;74.73;102326.38;5069029;28;20052;-63
2023/04/16 09:16:45;;;;;;;32.53;16.27;;;;;;;10.59;74.74;102324.66;5050471;28;20128;-64
2023/04/16 09:19:10;;;;;;;33.80;17.35;;;;;;;10.60;74.79;102324.44;5060537;28;20032;-62
2023/04/16 09:21:38;;;;;;;28.02;16.65;;;;;;;10.60;74.62;102323.59;5053645;28;20375;-63
2023/04/16 09:24:04;;;;;;;32.38;17.30;;;;;;;10.61;74.68;102328.06;5059261;28;20036;-63
2023/04/16 09:26:30;;;;;;;29.42;16.25;;;;;;;10.57;74.84;102325.75;5069954;28;20059;-63
2023/04/16 09:28:55;;;;;;;32.28;16.73;;;;;;;10.61;74.79;102328.94;5057849;28;20120;-64
2023/04/16 09:31:20;;;;;;;32.25;16.58;;;;;;;10.60;74.84;102335.53;5058358;28;20376;-64
2023/04/16 09:34:05;;;;;;;31.63;17.50;;;;;;;10.63;74.70;102331.50;5051894;28;20036;-64
2023/04/16 09:36:31;;;;;;;31.23;15.90;;;;;;;10.63;74.83;102335.13;5048933;28;20037;-61
2023/04/16 09:38:57;;;;;;;28.73;15.75;;;;;;;10.63;74.79;102348.16;5050795;28;20025;-63
2023/04/16 09:41:28;;;;;;;29.83;16.15;;;;;;;10.65;74.82;102346.00;5066784;28;20119;-64
2023/04/16 09:43:58;;;;;;;31.77;17.08;;;;;;;10.67;74.82;102341.94;5069112;28;20024;-63
2023/04/16 09:46:43;;;;;;;27.35;15.90;;;;;;;10.71;74.50;102353.47;5058157;28;20606;-63
2023/04/16 09:49:15;;;;;;;33.38;17.30;;;;;;;10.67;74.52;102353.06;5048257;28;20048;-65
2023/04/16 09:51:42;;;;;;;29.67;16.92;;;;;;;10.70;74.50;102349.84;5052185;28;20028;-66
2023/04/16 09:54:08;;;;;;;30.27;16.83;;;;;;;10.71;74.65;102350.69;5050932;28;20025;-65
2023/04/16 09:56:45;;;;;;;32.00;17.10;;;;;;;10.70;74.76;102352.63;5057729;28;20033;-62
2023/04/16 09:59:17;;;;;;;30.00;17.75;;;;;;;10.66;74.93;102354.13;5054516;28;20033;-61
2023/04/16 10:01:45;;;;;;;29.80;17.10;;;;;;;10.67;74.95;102360.53;5052241;28;20044;-61
2023/04/16 10:04:10;;;;;;;32.47;16.75;;;;;;;10.70;74.88;102349.00;5051028;28;20063;-60
2023/04/16 10:06:35;;;;;;;35.08;17.30;;;;;;;10.73;74.94;102359.69;5048791;28;20052;-61
2023/04/16 10:09:06;;;;;;;33.38;16.98;;;;;;;10.73;74.51;102363.31;5056099;28;20469;-61
2023/04/16 10:11:32;;;;;;;31.60;16.77;;;;;;;10.72;74.83;102357.94;5046612;28;20048;-61
2023/04/16 10:13:58;;;;;;;28.40;16.52;;;;;;;10.72;74.98;102363.50;5047959;28;20036;-61
2023/04/16 10:16:23;;;;;;;24.63;16.45;;;;;;;10.69;75.04;102362.03;5046491;28;20037;-62
2023/04/16 10:18:49;;;;;;;32.80;17.38;;;;;;;10.72;74.87;102360.72;5048117;28;20469;-61
2023/04/16 10:21:15;;;;;;;30.70;17.45;;;;;;;10.73;74.96;102360.53;5058141;28;20036;-61
2023/04/16 10:23:41;;;;;;;28.70;16.45;;;;;;;10.72;74.95;102360.72;5047204;28;20380;-61
2023/04/16 10:26:07;;;;;;;27.45;17.02;;;;;;;10.74;75.11;102365.00;5059541;28;20032;-64
2023/04/16 10:28:34;;;;;;;29.17;17.27;;;;;;;10.74;75.05;102364.16;5054871;28;20036;-63
2023/04/16 10:31:02;;;;;;;29.88;17.08;;;;;;;10.72;75.22;102358.78;5044908;28;20028;-60
2023/04/16 10:33:30;;;;;;;34.30;18.40;;;;;;;10.77;74.93;102370.13;5043664;28;20158;-62
2023/04/16 10:36:12;;;;;;;30.10;17.00;;;;;;;10.82;75.05;102372.25;5044749;28;20024;-62
2023/04/16 10:38:39;;;;;;;29.45;16.63;;;;;;;10.80;75.01;102371.59;5059407;28;20036;-61
2023/04/16 10:41:06;;;;;;;29.02;16.58;;;;;;;10.79;75.50;102369.91;5062536;28;20032;-63
2023/04/16 10:43:33;;;;;;;31.10;16.58;;;;;;;10.78;75.22;102377.38;5054511;28;20029;-64
2023/04/16 10:46:17;;;;;;;28.10;17.13;;;;;;;10.82;74.85;102372.25;5053177;28;20029;-63
2023/04/16 10:48:43;;;;;;;29.98;18.40;;;;;;;10.76;75.51;102373.94;5063889;28;20035;-62
2023/04/16 10:51:23;;;;;;;31.70;16.50;;;;;;;10.82;75.41;102372.25;5049291;28;20045;-62
2023/04/16 10:53:49;;;;;;;25.95;15.05;;;;;;;10.88;75.84;102376.06;5054897;28;20608;-64
2023/04/16 10:56:21;;;;;;;28.50;18.27;;;;;;;10.84;75.15;102367.31;5059366;28;20035;-63
2023/04/16 10:58:47;;;;;;;27.58;17.35;;;;;;;10.83;75.21;102371.16;5053367;28;20098;-64
2023/04/16 11:01:13;;;;;;;28.95;17.70;;;;;;;10.85;75.17;102371.81;5048151;28;20038;-63
2023/04/16 11:03:43;;;;;;;29.92;17.30;;;;;;;10.83;75.06;102368.38;5056988;28;20035;-63
2023/04/16 11:06:16;;;;;;;37.10;18.20;;;;;;;10.80;75.62;102368.81;5048667;28;20045;-63
2023/04/16 11:08:45;;;;;;;29.80;16.92;;;;;;;10.85;75.40;102373.75;5049191;28;20041;-63
2023/04/16 11:11:11;;;;;;;29.52;16.73;;;;;;;10.85;75.38;102365.41;5064320;28;20025;-62